aviador You're here:

KORH Decoded Metar

WORCESTER in MA, USA
Report Time2017-06-27 04:54:00
UTC Time2017-06-27 05:09:40
Flight Rules vfr VFR
WindCalm
Visibility9999 m
Phenomena:N/A
Clouds:N/A
Expected CloudBase > 1,200 ft AGL from Temp-Dew spread
CeilingNone
Temp14°C (ISA +1)
Dew Point11°C (82% RH)
QNH1016 hPa
Density Alt1,191 ft
Elevation997 ft
Report Wrong Elevation
Raw Report
KORH 270454Z AUTO 00000KT 10SM CLR 14/11 A3001 RMK AO2 SLP162
T01440106 402330122=

Extra information for KORH:More info

Metar Taf Metar & Taf Last 4 Metars F.Rules Stats Wind Profile Meteogram Temp Stats Airport Information Weather charts Add Link Nearby VenuesMetar ALERT Operation Metar Decoded Social comments

AIRNAV info for KORH